createdAt,value
2023-01-30T00:01:00.918Z,19.10
2023-01-30T00:03:03.898Z,17.20
2023-01-30T00:05:07.538Z,18.35
2023-01-30T00:07:11.918Z,15.40
2023-01-30T00:09:15.697Z,17.23
2023-01-30T00:11:22.728Z,17.13
2023-01-30T00:13:25.997Z,17.88
2023-01-30T00:15:28.912Z,17.95
2023-01-30T00:17:31.829Z,18.20
2023-01-30T00:19:34.758Z,15.85
2023-01-30T00:21:37.637Z,16.92
2023-01-30T00:23:42.129Z,17.88
2023-01-30T00:25:46.857Z,17.10
2023-01-30T00:27:49.867Z,18.23
2023-01-30T00:30:02.598Z,18.45
2023-01-30T00:32:06.987Z,17.35
2023-01-30T00:34:10.277Z,13.80
2023-01-30T00:36:13.201Z,15.68
2023-01-30T00:38:16.867Z,17.80
2023-01-30T00:40:21.286Z,17.48
2023-01-30T00:42:42.989Z,14.87
2023-01-30T00:45:04.558Z,14.98
2023-01-30T00:47:09.196Z,14.85
2023-01-30T00:49:12.886Z,16.67
2023-01-30T00:51:16.129Z,15.35
2023-01-30T00:53:19.068Z,14.73
2023-01-30T00:55:23.459Z,14.55
2023-01-30T00:57:26.349Z,9.98
2023-01-30T00:59:29.218Z,13.63
2023-01-30T01:01:32.125Z,16.45
2023-01-30T01:03:35.164Z,15.57
2023-01-30T01:05:38.038Z,16.48
2023-01-30T01:07:40.963Z,16.73
2023-01-30T01:09:44.612Z,15.60
2023-01-30T01:11:49.040Z,14.80
2023-01-30T01:13:53.879Z,13.83
2023-01-30T01:15:57.073Z,14.70
2023-01-30T01:18:00.031Z,16.52
2023-01-30T01:20:03.369Z,14.57
2023-01-30T01:22:06.520Z,15.13
2023-01-30T01:24:13.164Z,15.60
2023-01-30T01:26:16.631Z,13.15
2023-01-30T01:28:22.601Z,15.40
2023-01-30T01:30:25.568Z,14.70
2023-01-30T01:32:28.457Z,13.95
2023-01-30T01:34:31.322Z,15.13
2023-01-30T01:36:53.846Z,15.15
2023-01-30T01:38:57.359Z,14.43
2023-01-30T01:41:03.098Z,13.68
2023-01-30T01:45:23.134Z,13.77
2023-01-30T01:47:26.329Z,14.77
2023-01-30T01:49:32.323Z,14.75
2023-01-30T01:51:39.048Z,14.85
2023-01-30T01:53:47.310Z,14.50
2023-01-30T01:55:54.738Z,15.20
2023-01-30T01:58:03.381Z,13.93
2023-01-30T02:00:13.317Z,14.13
2023-01-30T02:02:18.814Z,13.88
2023-01-30T02:04:41.930Z,13.82
2023-01-30T02:06:44.937Z,11.35
2023-01-30T02:08:50.940Z,13.32
2023-01-30T02:10:59.390Z,14.02
2023-01-30T02:13:02.277Z,15.25
2023-01-30T02:15:06.518Z,13.93
2023-01-30T02:17:09.613Z,13.82
2023-01-30T02:19:26.268Z,14.68
2023-01-30T02:22:03.669Z,12.50
2023-01-30T02:24:35.478Z,13.48
2023-01-30T02:26:55.365Z,13.02
2023-01-30T02:29:27.521Z,14.55
2023-01-30T02:31:40.945Z,13.48
2023-01-30T02:33:57.761Z,12.38
2023-01-30T02:36:12.508Z,9.85
2023-01-30T02:38:28.859Z,12.80
2023-01-30T02:40:42.738Z,12.73
2023-01-30T02:42:52.699Z,11.73
2023-01-30T02:45:02.523Z,12.65
2023-01-30T02:47:11.679Z,13.85
2023-01-30T02:49:21.411Z,12.25
2023-01-30T02:51:29.815Z,12.60
2023-01-30T02:53:34.399Z,11.98
2023-01-30T02:55:41.519Z,12.07
2023-01-30T02:57:44.847Z,12.68
2023-01-30T02:59:52.239Z,12.40
2023-01-30T03:02:27.655Z,11.85
2023-01-30T03:04:45.213Z,12.48
2023-01-30T03:07:03.600Z,13.55
2023-01-30T03:09:17.057Z,13.45
2023-01-30T03:11:24.726Z,13.77
2023-01-30T03:13:37.908Z,13.45
2023-01-30T03:15:45.623Z,12.95
2023-01-30T03:17:50.279Z,13.52
2023-01-30T03:19:54.799Z,14.37
2023-01-30T03:21:57.780Z,13.80
2023-01-30T03:24:00.746Z,15.45
2023-01-30T03:26:06.285Z,14.75
2023-01-30T03:28:11.358Z,14.55
2023-01-30T03:30:15.070Z,14.35
2023-01-30T03:32:18.207Z,14.93
2023-01-30T03:34:22.718Z,13.40
2023-01-30T03:36:25.836Z,13.43
2023-01-30T03:38:29.601Z,12.63
2023-01-30T03:40:32.677Z,13.73
2023-01-30T03:42:35.779Z,14.27
2023-01-30T03:44:38.679Z,10.98
2023-01-30T03:46:41.858Z,12.45
2023-01-30T03:48:45.129Z,13.32
2023-01-30T03:50:50.719Z,11.52
2023-01-30T03:52:54.414Z,13.55
2023-01-30T03:54:58.717Z,14.25
2023-01-30T03:57:01.567Z,11.95
2023-01-30T03:59:05.024Z,12.52
2023-01-30T04:01:20.300Z,13.75
2023-01-30T04:03:23.914Z,11.05
2023-01-30T04:05:30.364Z,12.13
2023-01-30T04:07:40.779Z,12.07
2023-01-30T04:09:45.758Z,12.32
2023-01-30T04:11:49.729Z,11.05
2023-01-30T04:13:53.414Z,11.18
2023-01-30T04:16:16.638Z,10.25
2023-01-30T04:18:38.351Z,12.32
2023-01-30T04:20:54.279Z,12.40
2023-01-30T04:23:06.507Z,12.95
2023-01-30T04:25:10.317Z,13.50
2023-01-30T04:27:13.243Z,10.38
2023-01-30T04:29:30.579Z,7.38
2023-01-30T04:31:35.434Z,12.05
2023-01-30T04:33:45.279Z,10.73
2023-01-30T04:35:53.197Z,13.00
2023-01-30T04:37:56.519Z,13.38
2023-01-30T04:40:00.971Z,12.25
2023-01-30T04:42:04.297Z,12.68
2023-01-30T04:44:14.708Z,12.85
2023-01-30T04:46:28.410Z,11.60
2023-01-30T04:48:32.397Z,13.65
2023-01-30T04:50:37.454Z,12.00
2023-01-30T04:52:40.459Z,12.52
2023-01-30T04:54:44.217Z,13.48
2023-01-30T04:56:48.597Z,12.63
2023-01-30T04:58:51.644Z,8.65
2023-01-30T05:00:55.301Z,11.68
2023-01-30T05:02:58.437Z,13.10
2023-01-30T05:05:01.424Z,11.65
2023-01-30T05:07:04.398Z,12.43
2023-01-30T05:09:07.439Z,13.15
2023-01-30T05:11:10.599Z,12.80
2023-01-30T05:13:14.973Z,13.43
2023-01-30T05:15:18.405Z,10.98
2023-01-30T05:17:21.671Z,12.52
2023-01-30T05:19:24.697Z,11.82
2023-01-30T05:21:29.080Z,13.48
2023-01-30T05:23:32.038Z,16.15
2023-01-30T05:25:34.843Z,13.73
2023-01-30T05:27:37.923Z,13.05
2023-01-30T05:29:42.329Z,13.38
2023-01-30T05:31:45.274Z,12.10
2023-01-30T05:33:50.151Z,12.68
2023-01-30T05:35:53.010Z,11.77
2023-01-30T05:37:55.886Z,7.93
2023-01-30T05:39:58.859Z,13.23
2023-01-30T05:42:01.743Z,14.15
2023-01-30T05:44:05.082Z,21.90
2023-01-30T05:46:12.580Z,17.67
2023-01-30T05:48:15.506Z,12.77
2023-01-30T05:50:18.967Z,17.17
2023-01-30T05:52:22.332Z,14.30
2023-01-30T05:54:25.523Z,10.88
2023-01-30T05:56:28.678Z,11.27
2023-01-30T05:58:32.318Z,13.23
2023-01-30T06:00:35.278Z,9.73
2023-01-30T06:02:39.707Z,12.45
2023-01-30T06:04:42.760Z,13.07
2023-01-30T06:06:45.559Z,12.50
2023-01-30T06:08:49.021Z,10.80
2023-01-30T06:10:52.000Z,12.38
2023-01-30T06:12:55.018Z,13.60
2023-01-30T06:14:57.997Z,8.50
2023-01-30T06:17:01.063Z,12.45
2023-01-30T06:19:05.639Z,13.10
2023-01-30T06:21:09.199Z,12.82
2023-01-30T06:23:12.266Z,12.55
2023-01-30T06:25:15.552Z,14.40
2023-01-30T06:27:19.726Z,14.90
2023-01-30T06:29:22.716Z,12.60
2023-01-30T06:31:25.796Z,12.73
2023-01-30T06:33:28.998Z,13.07
2023-01-30T06:35:33.699Z,18.10
2023-01-30T06:37:36.717Z,18.30
2023-01-30T06:39:39.678Z,24.17
2023-01-30T06:41:42.642Z,18.02
2023-01-30T06:43:45.725Z,17.17
2023-01-30T06:45:48.823Z,12.95
2023-01-30T06:47:53.141Z,13.15
2023-01-30T06:49:56.089Z,9.82
2023-01-30T06:52:00.481Z,10.98
2023-01-30T06:54:03.379Z,13.27
2023-01-30T06:56:06.688Z,19.30
2023-01-30T06:58:10.922Z,11.63
2023-01-30T07:00:16.402Z,17.20
2023-01-30T07:04:21.855Z,20.27
2023-01-30T07:06:27.036Z,17.77
2023-01-30T07:08:31.451Z,24.67
2023-01-30T07:10:35.801Z,26.00
2023-01-30T07:12:38.721Z,16.55
2023-01-30T07:14:41.660Z,17.20
2023-01-30T07:16:44.514Z,16.23
2023-01-30T07:18:47.460Z,12.65
2023-01-30T07:20:50.787Z,18.70
2023-01-30T07:22:55.088Z,8.88
2023-01-30T07:24:59.598Z,20.25
2023-01-30T07:27:02.656Z,14.38
2023-01-30T07:29:07.079Z,17.10
2023-01-30T07:31:10.609Z,14.15
2023-01-30T07:33:13.772Z,16.52
2023-01-30T07:35:17.039Z,15.68
2023-01-30T07:37:19.924Z,15.82
2023-01-30T07:39:22.879Z,14.45
2023-01-30T07:41:27.802Z,13.85
2023-01-30T07:43:30.839Z,4.82
2023-01-30T07:45:37.888Z,14.07
2023-01-30T07:47:40.969Z,2.95
2023-01-30T07:49:43.849Z,12.65
2023-01-30T07:51:46.758Z,10.30
2023-01-30T07:53:51.446Z,14.38
2023-01-30T07:55:54.558Z,12.00
2023-01-30T07:57:59.040Z,13.68
2023-01-30T08:00:02.479Z,10.77
2023-01-30T08:02:12.072Z,12.43
2023-01-30T08:04:15.175Z,12.25
2023-01-30T08:06:18.483Z,13.85
2023-01-30T08:08:21.540Z,12.80
2023-01-30T08:10:24.761Z,4.38
2023-01-30T08:12:28.050Z,10.63
2023-01-30T08:14:32.277Z,11.93
2023-01-30T08:16:35.177Z,6.78
2023-01-30T08:18:38.057Z,5.30
2023-01-30T08:20:43.027Z,12.85
2023-01-30T08:22:45.999Z,8.20
2023-01-30T08:24:48.947Z,11.30
2023-01-30T08:26:51.997Z,9.32
2023-01-30T08:28:56.276Z,10.65
2023-01-30T08:31:00.821Z,10.68
2023-01-30T08:33:03.796Z,11.63
2023-01-30T08:35:07.658Z,10.82
2023-01-30T08:37:10.510Z,16.90
2023-01-30T08:39:14.299Z,24.80
2023-01-30T08:41:17.247Z,17.13
2023-01-30T08:43:20.066Z,13.35
2023-01-30T08:45:23.038Z,18.10
2023-01-30T08:47:27.445Z,17.23
2023-01-30T08:49:30.417Z,18.00
2023-01-30T08:51:33.539Z,18.48
2023-01-30T08:53:36.590Z,10.15
2023-01-30T08:55:39.805Z,14.95
2023-01-30T08:57:42.745Z,9.95
2023-01-30T08:59:46.230Z,11.27
2023-01-30T09:01:49.467Z,10.93
2023-01-30T09:03:53.802Z,13.00
2023-01-30T09:05:56.955Z,13.95
2023-01-30T09:08:00.035Z,12.98
2023-01-30T09:10:02.938Z,14.25
2023-01-30T09:12:06.298Z,15.82
2023-01-30T09:14:09.311Z,14.43
2023-01-30T09:16:12.748Z,10.60
2023-01-30T09:18:15.823Z,5.25
2023-01-30T09:20:21.062Z,11.07
2023-01-30T09:22:24.194Z,10.93
2023-01-30T09:24:28.086Z,10.32
2023-01-30T09:26:31.162Z,4.00
2023-01-30T09:28:34.661Z,2.80
2023-01-30T09:30:37.745Z,5.38
2023-01-30T09:32:40.741Z,15.02
2023-01-30T09:34:43.759Z,12.05
2023-01-30T09:36:48.333Z,10.40
2023-01-30T09:38:51.419Z,13.07
2023-01-30T09:41:12.639Z,12.65
2023-01-30T09:43:30.442Z,14.25
2023-01-30T09:45:45.379Z,12.95
2023-01-30T09:47:56.479Z,6.97
2023-01-30T09:50:08.829Z,11.10
2023-01-30T09:52:25.219Z,12.05
2023-01-30T09:56:32.841Z,15.82
2023-01-30T09:58:46.127Z,14.27
2023-01-30T10:00:52.161Z,14.50
2023-01-30T10:03:05.230Z,15.32
2023-01-30T10:05:08.729Z,7.97
2023-01-30T10:07:27.451Z,13.35
2023-01-30T10:09:41.997Z,15.63
2023-01-30T10:11:56.983Z,14.23
2023-01-30T10:14:38.331Z,12.02
2023-01-30T10:16:54.641Z,12.30
2023-01-30T10:19:35.343Z,12.48
2023-01-30T10:21:48.317Z,11.02
2023-01-30T10:24:08.158Z,15.32
2023-01-30T10:26:14.879Z,14.57
2023-01-30T10:28:23.301Z,14.43
2023-01-30T10:30:26.699Z,12.63
2023-01-30T10:32:32.708Z,15.88
2023-01-30T10:34:39.342Z,14.23
2023-01-30T10:36:47.919Z,12.80
2023-01-30T10:38:53.120Z,1.63
2023-01-30T10:41:01.706Z,14.10
2023-01-30T10:43:14.303Z,14.43
2023-01-30T10:45:20.837Z,15.05
2023-01-30T10:47:46.558Z,13.60
2023-01-30T10:49:53.276Z,15.07
2023-01-30T10:52:03.357Z,12.43
2023-01-30T10:54:14.120Z,17.00
2023-01-30T10:56:27.048Z,9.18
2023-01-30T10:58:36.367Z,16.90
2023-01-30T11:00:43.239Z,15.63
2023-01-30T11:02:58.816Z,14.85
2023-01-30T11:05:05.510Z,13.35
2023-01-30T11:07:08.757Z,27.90
2023-01-30T11:09:11.775Z,19.60
2023-01-30T11:11:27.091Z,23.80
2023-01-30T11:13:31.985Z,10.43
2023-01-30T11:15:40.607Z,15.17
2023-01-30T11:17:45.677Z,15.65
2023-01-30T11:19:56.971Z,15.30
2023-01-30T11:22:03.356Z,16.27
2023-01-30T11:24:17.387Z,12.98
2023-01-30T11:26:29.466Z,15.07
2023-01-30T11:28:42.639Z,14.07
2023-01-30T11:30:53.165Z,14.90
2023-01-30T11:33:11.334Z,15.88
2023-01-30T11:35:29.842Z,13.30
2023-01-30T11:37:34.279Z,13.02
2023-01-30T11:39:37.300Z,14.98
2023-01-30T11:41:44.750Z,13.68
2023-01-30T11:43:48.820Z,12.23
2023-01-30T11:45:51.885Z,13.15
2023-01-30T11:47:59.199Z,34.50
2023-01-30T11:51:31.963Z,13.25
2023-01-30T11:52:30.800Z,13.10
2023-01-30T11:54:38.336Z,13.77
2023-01-30T11:56:49.760Z,13.57
2023-01-30T11:59:00.517Z,14.38
2023-01-30T12:01:05.529Z,13.35
2023-01-30T12:03:13.220Z,12.90
2023-01-30T12:05:26.246Z,12.82
2023-01-30T12:07:32.231Z,15.63
2023-01-30T12:09:40.083Z,13.52
2023-01-30T12:11:45.559Z,11.35
2023-01-30T12:13:51.016Z,14.63
2023-01-30T12:16:04.784Z,43.80
2023-01-30T12:18:14.728Z,13.40
2023-01-30T12:20:26.519Z,11.55
2023-01-30T12:22:36.649Z,11.63
2023-01-30T12:24:45.150Z,16.58
2023-01-30T12:26:55.572Z,18.75
2023-01-30T12:29:06.907Z,11.80
2023-01-30T12:31:18.802Z,17.50
2023-01-30T12:33:22.324Z,15.55
2023-01-30T12:35:35.639Z,18.13
2023-01-30T12:37:52.098Z,14.77
2023-01-30T12:40:03.960Z,12.38
2023-01-30T12:42:27.268Z,12.82
2023-01-30T12:44:54.315Z,17.70
2023-01-30T12:47:17.758Z,12.18
2023-01-30T12:49:54.815Z,12.02
2023-01-30T12:52:11.702Z,12.02
2023-01-30T12:54:26.407Z,12.57
2023-01-30T12:56:46.363Z,12.77
2023-01-30T12:58:59.242Z,10.35
2023-01-30T13:01:16.565Z,11.20
2023-01-30T13:03:35.168Z,11.00
2023-01-30T13:05:45.181Z,10.15
2023-01-30T13:08:00.803Z,13.07
2023-01-30T13:10:14.658Z,13.45
2023-01-30T13:12:28.119Z,25.10
2023-01-30T13:14:41.462Z,27.65
2023-01-30T13:16:55.928Z,12.90
2023-01-30T13:19:06.244Z,11.15
2023-01-30T13:21:16.232Z,13.00
2023-01-30T13:23:23.360Z,11.63
2023-01-30T13:25:32.837Z,12.90
2023-01-30T13:27:40.937Z,11.00
2023-01-30T13:29:47.660Z,13.32
2023-01-30T13:31:54.781Z,33.90
2023-01-30T13:34:05.902Z,30.98
2023-01-30T13:36:14.827Z,20.10
2023-01-30T13:38:22.359Z,82.82
2023-01-30T13:40:29.096Z,109.28
2023-01-30T13:42:39.238Z,98.57
2023-01-30T13:44:45.812Z,38.88
2023-01-30T13:46:50.191Z,50.50
2023-01-30T13:49:05.839Z,89.22
2023-01-30T13:51:23.596Z,59.17
2023-01-30T13:53:35.008Z,34.38
2023-01-30T13:55:47.666Z,14.93
2023-01-30T13:57:56.958Z,46.60
2023-01-30T14:00:22.804Z,47.15
2023-01-30T14:02:26.475Z,31.38
2023-01-30T14:04:52.808Z,16.40
2023-01-30T14:07:09.478Z,13.82
2023-01-30T14:09:25.847Z,15.10
2023-01-30T14:11:38.603Z,15.18
2023-01-30T14:13:54.547Z,18.77
2023-01-30T14:16:01.450Z,14.40
2023-01-30T14:18:07.882Z,14.00
2023-01-30T14:20:17.558Z,15.77
2023-01-30T14:22:28.238Z,16.55
2023-01-30T14:24:32.100Z,16.95
2023-01-30T14:27:00.892Z,19.00
2023-01-30T14:29:04.197Z,22.83
2023-01-30T14:31:08.893Z,20.30
2023-01-30T14:33:34.370Z,18.48
2023-01-30T14:35:37.217Z,12.35
2023-01-30T14:37:48.807Z,13.57
2023-01-30T14:39:54.126Z,15.73
2023-01-30T14:42:12.288Z,11.70
2023-01-30T14:44:47.918Z,12.57
2023-01-30T14:46:56.945Z,7.72
2023-01-30T14:49:05.589Z,12.05
2023-01-30T14:51:29.312Z,11.05
2023-01-30T14:53:32.253Z,16.23
2023-01-30T14:55:35.428Z,15.32
2023-01-30T14:57:39.858Z,10.68
2023-01-30T15:00:03.273Z,12.50
2023-01-30T15:02:26.807Z,10.18
2023-01-30T15:04:33.328Z,6.03
2023-01-30T15:06:36.803Z,7.60
2023-01-30T15:08:43.820Z,10.02
2023-01-30T15:11:09.967Z,8.13
2023-01-30T15:13:39.236Z,9.63
2023-01-30T15:15:51.199Z,18.23
2023-01-30T15:18:22.517Z,15.48
2023-01-30T15:20:42.677Z,9.90
2023-01-30T15:23:07.797Z,7.65
2023-01-30T15:25:31.156Z,3.92
2023-01-30T15:27:42.313Z,8.85
2023-01-30T15:30:19.078Z,4.57
2023-01-30T15:32:24.098Z,5.07
2023-01-30T15:34:31.491Z,5.80
2023-01-30T15:36:39.154Z,7.57
2023-01-30T15:38:42.038Z,10.75
2023-01-30T15:40:45.117Z,8.70
2023-01-30T15:42:49.770Z,7.70
2023-01-30T15:45:00.885Z,6.50
2023-01-30T15:47:38.718Z,5.38
2023-01-30T15:49:54.679Z,4.57
2023-01-30T15:52:01.612Z,5.45
2023-01-30T15:54:11.522Z,5.20
2023-01-30T15:56:20.087Z,8.40
2023-01-30T15:58:23.971Z,6.38
2023-01-30T16:00:29.695Z,9.10
2023-01-30T16:02:34.494Z,8.02
2023-01-30T16:04:37.557Z,7.82
2023-01-30T16:06:42.034Z,8.07
2023-01-30T16:08:56.548Z,11.50
2023-01-30T16:11:01.036Z,11.77
2023-01-30T16:13:04.501Z,11.73
2023-01-30T16:15:19.640Z,14.02
2023-01-30T16:17:33.023Z,12.73
2023-01-30T16:19:38.489Z,13.65
2023-01-30T16:21:46.918Z,14.48
2023-01-30T16:23:56.153Z,17.45
2023-01-30T16:26:00.188Z,15.77
2023-01-30T16:28:04.491Z,14.25
2023-01-30T16:30:09.640Z,11.80
2023-01-30T16:32:14.277Z,15.48
2023-01-30T16:34:28.707Z,12.75
2023-01-30T16:36:38.840Z,12.13
2023-01-30T16:38:45.775Z,16.55
2023-01-30T16:40:48.721Z,16.15
2023-01-30T16:42:59.529Z,20.85
2023-01-30T16:45:47.968Z,15.93
2023-01-30T16:47:51.093Z,13.35
2023-01-30T16:49:56.328Z,22.20
2023-01-30T16:52:03.220Z,30.30
2023-01-30T16:54:19.207Z,33.88
2023-01-30T16:56:22.328Z,27.30
2023-01-30T16:58:32.573Z,24.13
2023-01-30T17:00:38.676Z,18.63
2023-01-30T17:02:43.278Z,17.13
2023-01-30T17:04:46.399Z,29.83
2023-01-30T17:06:57.999Z,31.20
2023-01-30T17:09:02.634Z,40.85
2023-01-30T17:11:07.417Z,31.70
2023-01-30T17:13:30.878Z,35.25
2023-01-30T17:15:35.907Z,51.40
2023-01-30T17:17:38.858Z,39.58
2023-01-30T17:19:42.028Z,21.73
2023-01-30T17:21:48.452Z,41.97
2023-01-30T17:23:55.300Z,47.00
2023-01-30T17:25:58.549Z,67.80
2023-01-30T17:28:03.243Z,102.90
2023-01-30T17:30:14.581Z,23.48
2023-01-30T17:32:17.638Z,42.65
2023-01-30T17:34:22.977Z,48.75
2023-01-30T17:36:27.845Z,27.25
2023-01-30T17:38:30.804Z,28.80
2023-01-30T17:40:35.905Z,17.17
2023-01-30T17:42:38.877Z,19.25
2023-01-30T17:44:43.312Z,18.13
2023-01-30T17:46:48.568Z,19.52
2023-01-30T17:48:52.058Z,14.10
2023-01-30T17:50:55.090Z,10.48
2023-01-30T17:52:58.209Z,9.35
2023-01-30T17:55:01.158Z,10.18
2023-01-30T17:57:06.404Z,10.65
2023-01-30T17:59:16.600Z,13.88
2023-01-30T18:01:21.106Z,13.85
2023-01-30T18:03:25.650Z,13.48
2023-01-30T18:05:28.650Z,14.25
2023-01-30T18:07:31.798Z,11.70
2023-01-30T18:09:34.680Z,11.75
2023-01-30T18:11:37.643Z,9.68
2023-01-30T18:13:41.026Z,9.68
2023-01-30T18:15:43.997Z,10.13
2023-01-30T18:17:50.157Z,10.27
2023-01-30T18:19:54.634Z,10.45
2023-01-30T18:21:58.681Z,10.05
2023-01-30T18:24:01.795Z,12.30
2023-01-30T18:26:04.799Z,13.18
2023-01-30T18:28:10.719Z,10.63
2023-01-30T18:30:17.405Z,11.50
2023-01-30T18:32:20.825Z,11.88
2023-01-30T18:34:25.237Z,9.05
2023-01-30T18:36:28.365Z,9.95
2023-01-30T18:38:31.303Z,10.18
2023-01-30T18:40:34.277Z,9.75
2023-01-30T18:42:37.190Z,9.15
2023-01-30T18:44:40.128Z,9.45
2023-01-30T18:46:43.052Z,6.97
2023-01-30T18:48:47.267Z,8.15
2023-01-30T18:50:51.641Z,10.10
2023-01-30T18:52:54.597Z,9.10
2023-01-30T18:54:57.680Z,9.18
2023-01-30T18:57:00.648Z,9.68
2023-01-30T18:59:05.575Z,9.07
2023-01-30T19:01:14.472Z,8.48
2023-01-30T19:03:17.456Z,7.32
2023-01-30T19:05:20.770Z,6.82
2023-01-30T19:07:25.075Z,7.32
2023-01-30T19:09:28.164Z,6.45
2023-01-30T19:11:49.675Z,6.85
2023-01-30T19:13:53.845Z,7.40
2023-01-30T19:15:58.920Z,7.18
2023-01-30T19:18:01.707Z,3.47
2023-01-30T19:20:08.905Z,3.22
2023-01-30T19:22:11.771Z,4.00
2023-01-30T19:24:17.034Z,4.07
2023-01-30T19:26:21.558Z,3.03
2023-01-30T19:28:24.505Z,3.08
2023-01-30T19:30:27.646Z,4.85
2023-01-30T19:32:30.677Z,5.32
2023-01-30T19:34:33.460Z,3.92
2023-01-30T19:36:36.973Z,3.60
2023-01-30T19:38:40.133Z,3.63
2023-01-30T19:40:45.876Z,3.67
2023-01-30T19:42:49.887Z,3.28
2023-01-30T19:44:53.527Z,2.60
2023-01-30T19:46:56.527Z,2.08
2023-01-30T19:48:59.672Z,3.88
2023-01-30T19:51:13.673Z,2.40
2023-01-30T19:53:16.993Z,4.50
2023-01-30T19:55:20.974Z,2.53
2023-01-30T19:57:25.652Z,4.05
2023-01-30T19:59:30.427Z,4.82
2023-01-30T20:01:37.297Z,3.90
2023-01-30T20:03:42.032Z,4.57
2023-01-30T20:05:45.613Z,4.28
2023-01-30T20:07:50.512Z,4.43
2023-01-30T20:09:54.501Z,3.85
2023-01-30T20:11:57.823Z,5.22
2023-01-30T20:14:02.523Z,5.07
2023-01-30T20:16:06.727Z,3.30
2023-01-30T20:18:10.014Z,4.15
2023-01-30T20:20:13.447Z,4.70
2023-01-30T20:22:16.438Z,5.65
2023-01-30T20:24:19.894Z,5.38
2023-01-30T20:26:24.687Z,5.57
2023-01-30T20:28:28.742Z,7.35
2023-01-30T20:30:33.547Z,9.75
2023-01-30T20:32:37.037Z,8.60
2023-01-30T20:34:40.353Z,6.00
2023-01-30T20:36:43.337Z,7.05
2023-01-30T20:38:47.757Z,7.00
2023-01-30T20:40:50.669Z,8.50
2023-01-30T20:42:53.758Z,9.18
2023-01-30T20:44:56.858Z,8.90
2023-01-30T20:47:01.748Z,11.10
2023-01-30T20:49:04.790Z,12.13
2023-01-30T20:51:08.937Z,12.07
2023-01-30T20:53:12.369Z,12.30
2023-01-30T20:55:15.400Z,10.80
2023-01-30T20:57:18.389Z,9.50
2023-01-30T20:59:27.544Z,9.60
2023-01-30T21:01:30.980Z,10.30
2023-01-30T21:03:35.627Z,9.50
2023-01-30T21:05:38.751Z,7.13
2023-01-30T21:07:41.831Z,6.53
2023-01-30T21:09:44.870Z,6.72
2023-01-30T21:11:49.380Z,8.93
2023-01-30T21:13:52.349Z,8.75
2023-01-30T21:16:02.271Z,7.40
2023-01-30T21:18:05.702Z,5.85
2023-01-30T21:20:11.460Z,6.13
2023-01-30T21:22:15.340Z,6.13
2023-01-30T21:24:20.208Z,5.80
2023-01-30T21:26:27.496Z,6.38
2023-01-30T21:28:32.306Z,7.15
2023-01-30T21:30:36.988Z,7.47
2023-01-30T21:32:40.673Z,7.10
2023-01-30T21:34:44.365Z,7.35
2023-01-30T21:37:08.981Z,8.32
2023-01-30T21:39:32.744Z,7.50
2023-01-30T21:41:56.347Z,6.90
2023-01-30T21:44:00.134Z,7.85
2023-01-30T21:46:03.429Z,6.28
2023-01-30T21:48:07.447Z,5.68
2023-01-30T21:50:11.300Z,7.40
2023-01-30T21:52:16.092Z,6.80
2023-01-30T21:54:19.881Z,6.68
2023-01-30T21:56:23.307Z,6.10
2023-01-30T21:58:26.340Z,5.85
2023-01-30T22:00:29.309Z,5.97
2023-01-30T22:02:32.217Z,5.47
2023-01-30T22:04:36.648Z,5.97
2023-01-30T22:06:40.201Z,5.65
2023-01-30T22:08:44.760Z,6.50
2023-01-30T22:10:47.551Z,6.78
2023-01-30T22:12:50.576Z,7.25
2023-01-30T22:14:53.930Z,6.25
2023-01-30T22:16:57.487Z,5.35
2023-01-30T22:19:02.615Z,5.43
2023-01-30T22:21:11.243Z,5.32
2023-01-30T22:23:14.099Z,6.13
2023-01-30T22:25:18.823Z,3.45
2023-01-30T22:27:21.804Z,4.80
2023-01-30T22:29:25.254Z,4.82
2023-01-30T22:31:34.922Z,5.03
2023-01-30T22:33:38.484Z,4.88
2023-01-30T22:35:48.549Z,4.28
2023-01-30T22:37:51.889Z,4.32
2023-01-30T22:39:54.941Z,4.60
2023-01-30T22:41:59.338Z,4.80
2023-01-30T22:44:04.513Z,5.80
2023-01-30T22:46:09.399Z,5.13
2023-01-30T22:48:12.238Z,5.80
2023-01-30T22:50:15.238Z,6.43
2023-01-30T22:52:18.199Z,5.03
2023-01-30T22:54:21.557Z,5.43
2023-01-30T22:56:29.698Z,4.97
2023-01-30T22:58:34.979Z,5.95
2023-01-30T23:00:38.145Z,4.68
2023-01-30T23:02:41.359Z,5.32
2023-01-30T23:04:44.420Z,5.68
2023-01-30T23:06:48.707Z,7.10
2023-01-30T23:08:53.800Z,7.68
2023-01-30T23:10:56.787Z,7.35
2023-01-30T23:13:08.560Z,7.53
2023-01-30T23:15:13.317Z,6.15
2023-01-30T23:17:34.861Z,6.60
2023-01-30T23:19:37.923Z,6.13
2023-01-30T23:21:42.359Z,7.60
2023-01-30T23:23:46.124Z,7.20
2023-01-30T23:25:49.083Z,5.95
2023-01-30T23:27:51.980Z,5.47
2023-01-30T23:29:54.916Z,6.28
2023-01-30T23:31:59.302Z,6.50
2023-01-30T23:34:05.048Z,7.70
2023-01-30T23:36:11.199Z,7.53
2023-01-30T23:38:19.352Z,5.85
2023-01-30T23:40:22.638Z,6.82
2023-01-30T23:42:25.457Z,6.93
2023-01-30T23:44:28.447Z,7.43
2023-01-30T23:46:33.759Z,7.07
2023-01-30T23:48:38.593Z,6.60
2023-01-30T23:50:42.507Z,6.28
2023-01-30T23:52:45.558Z,4.22
2023-01-30T23:54:48.679Z,4.72
2023-01-30T23:56:51.558Z,3.00
2023-01-30T23:58:54.773Z,3.85
